Time;durP1;ratioP1;P1;durP2;ratioP2;P2;SDS_P1;SDS_P2;PMS_P1;PMS_P2;Temp;Humidity;BMP_temperature;BMP_pressure;BME280_temperature;BME280_humidity;BME280_pressure;Samples;Min_cycle;Max_cycle;Signal;HPM_P1;HPM_P2
2023/04/15 00:01:58;;;;;;;0.10;0.10;;;7.00;99.90;;;;;;5070293;28;20279;-82
2023/04/15 00:04:24;;;;;;;0.10;0.10;;;6.80;99.90;;;;;;5073104;28;20560;-81
2023/04/15 00:06:52;;;;;;;0.10;0.10;;;6.60;99.90;;;;;;5073162;28;20218;-81
2023/04/15 00:09:18;;;;;;;0.10;0.10;;;6.50;99.90;;;;;;5071286;28;20211;-82
2023/04/15 00:11:44;;;;;;;0.10;0.10;;;6.60;99.90;;;;;;5069247;28;20738;-82
2023/04/15 00:14:10;;;;;;;0.10;0.10;;;6.60;99.90;;;;;;5074834;28;20294;-82
2023/04/15 00:16:36;;;;;;;0.10;0.10;;;6.50;99.90;;;;;;5067594;28;20181;-81
2023/04/15 00:19:01;;;;;;;0.10;0.10;;;6.50;99.90;;;;;;5072608;28;20188;-82
2023/04/15 00:21:27;;;;;;;0.10;0.10;;;6.70;99.90;;;;;;5070391;28;20203;-82
2023/04/15 00:23:53;;;;;;;0.10;0.10;;;6.70;99.90;;;;;;5071182;28;20212;-82
2023/04/15 00:26:19;;;;;;;0.10;0.10;;;6.60;99.90;;;;;;5068420;28;20546;-82
2023/04/15 00:28:45;;;;;;;0.10;0.10;;;6.70;99.90;;;;;;5066662;28;21122;-82
2023/04/15 00:31:11;;;;;;;0.10;0.10;;;6.60;99.90;;;;;;5071624;28;20192;-82
2023/04/15 00:33:37;;;;;;;0.10;0.10;;;6.50;99.90;;;;;;5068371;28;20400;-82
2023/04/15 00:36:03;;;;;;;0.10;0.10;;;6.50;99.90;;;;;;5067461;28;20188;-82
2023/04/15 00:38:28;;;;;;;0.10;0.10;;;6.50;99.90;;;;;;5073001;28;20307;-81
2023/04/15 00:40:55;;;;;;;0.10;0.10;;;6.50;99.90;;;;;;5069495;28;20184;-82
2023/04/15 00:43:20;;;;;;;0.10;0.10;;;6.50;99.90;;;;;;5071916;28;20188;-82
2023/04/15 00:45:46;;;;;;;0.10;0.10;;;6.40;99.90;;;;;;5068802;28;20192;-82
2023/04/15 00:48:12;;;;;;;0.10;0.10;;;6.40;99.90;;;;;;5077868;28;20181;-83
2023/04/15 00:50:37;;;;;;;0.10;0.10;;;6.40;99.90;;;;;;5084569;28;20173;-82
2023/04/15 00:53:04;;;;;;;0.10;0.10;;;6.40;99.90;;;;;;5084519;28;20287;-82
2023/04/15 00:55:30;;;;;;;0.10;0.10;;;6.40;99.90;;;;;;5076989;28;20208;-81
2023/04/15 00:57:56;;;;;;;0.10;0.10;;;6.50;99.90;;;;;;5074590;28;20210;-82
2023/04/15 01:00:22;;;;;;;0.10;0.10;;;6.60;99.90;;;;;;5088040;28;20204;-82
2023/04/15 01:02:48;;;;;;;0.10;0.10;;;6.60;99.90;;;;;;5084332;28;20200;-82
2023/04/15 01:05:16;;;;;;;0.00;0.00;;;6.70;99.90;;;;;;5081364;28;20219;-82
2023/04/15 01:07:42;;;;;;;0.10;0.10;;;6.70;99.90;;;;;;5074809;28;20215;-82
2023/04/15 01:10:08;;;;;;;0.10;0.10;;;6.60;99.90;;;;;;5079343;28;20301;-82
2023/04/15 01:12:34;;;;;;;0.10;0.10;;;6.70;99.90;;;;;;5078087;28;20202;-82
2023/04/15 01:15:01;;;;;;;0.10;0.10;;;6.70;99.90;;;;;;5074819;28;20216;-82
2023/04/15 01:17:27;;;;;;;0.10;0.10;;;6.60;99.90;;;;;;5079921;28;20180;-82
2023/04/15 01:19:58;;;;;;;0.10;0.10;;;6.60;99.90;;;;;;5076058;28;20222;-82
2023/04/15 01:22:25;;;;;;;0.10;0.10;;;6.60;99.90;;;;;;5085229;28;20709;-82
2023/04/15 01:25:00;;;;;;;0.10;0.10;;;6.50;99.90;;;;;;5086930;28;20262;-83
2023/04/15 01:27:26;;;;;;;0.10;0.10;;;6.40;99.90;;;;;;5083060;28;20172;-82
2023/04/15 01:29:52;;;;;;;0.10;0.10;;;6.40;99.90;;;;;;5081343;28;20238;-82
2023/04/15 01:32:18;;;;;;;0.10;0.10;;;6.40;99.90;;;;;;5083390;28;20192;-82
2023/04/15 01:34:44;;;;;;;0.10;0.10;;;6.40;99.90;;;;;;5079053;28;20218;-82
2023/04/15 01:37:10;;;;;;;0.10;0.10;;;6.40;99.90;;;;;;5079070;28;20184;-82
2023/04/15 01:39:36;;;;;;;0.10;0.10;;;6.50;99.90;;;;;;5068619;28;20248;-82
2023/04/15 01:42:02;;;;;;;0.10;0.10;;;6.50;99.90;;;;;;5071060;28;20177;-83
2023/04/15 01:44:27;;;;;;;0.10;0.10;;;6.40;99.90;;;;;;5067581;28;20199;-81
2023/04/15 01:46:53;;;;;;;0.10;0.10;;;6.30;99.90;;;;;;5068254;28;20740;-82
2023/04/15 01:49:18;;;;;;;0.10;0.10;;;6.40;99.90;;;;;;5072379;28;20566;-81
2023/04/15 01:51:44;;;;;;;0.10;0.10;;;6.40;99.90;;;;;;5067161;28;20605;-82
2023/04/15 01:54:10;;;;;;;0.10;0.10;;;6.40;99.90;;;;;;5071167;28;20245;-82
2023/04/15 01:56:35;;;;;;;0.10;0.10;;;6.50;99.90;;;;;;5070463;28;20191;-82
2023/04/15 01:59:02;;;;;;;0.10;0.10;;;6.50;99.90;;;;;;5070992;28;20189;-82
2023/04/15 02:01:28;;;;;;;0.10;0.10;;;6.60;99.90;;;;;;5065999;28;20185;-82
2023/04/15 02:03:53;;;;;;;0.10;0.10;;;6.60;99.90;;;;;;5071592;28;20222;-83
2023/04/15 02:06:19;;;;;;;0.10;0.10;;;6.60;99.90;;;;;;5071530;28;20262;-82
2023/04/15 02:08:45;;;;;;;0.10;0.10;;;6.60;99.90;;;;;;5066877;28;20196;-82
2023/04/15 02:11:11;;;;;;;0.10;0.10;;;6.60;99.90;;;;;;5064899;28;20293;-82
2023/04/15 02:13:36;;;;;;;0.10;0.10;;;6.60;99.90;;;;;;5071647;28;20210;-82
2023/04/15 02:16:02;;;;;;;0.10;0.10;;;6.50;99.90;;;;;;5070950;28;20194;-82
2023/04/15 02:18:28;;;;;;;0.10;0.10;;;6.50;99.90;;;;;;5070288;28;20180;-82
2023/04/15 02:20:54;;;;;;;0.10;0.10;;;6.40;99.90;;;;;;5067472;28;20196;-82
2023/04/15 02:23:20;;;;;;;0.10;0.10;;;6.40;99.90;;;;;;5066955;28;20187;-83
2023/04/15 02:25:46;;;;;;;0.10;0.10;;;6.40;99.90;;;;;;5072288;28;20190;-82
2023/04/15 02:28:11;;;;;;;0.10;0.10;;;6.30;99.90;;;;;;5069334;28;20182;-82
2023/04/15 02:30:37;;;;;;;0.00;0.00;;;6.20;99.90;;;;;;5065969;28;20251;-83
2023/04/15 02:33:03;;;;;;;0.10;0.10;;;6.20;99.90;;;;;;5062197;28;20183;-82
2023/04/15 02:35:29;;;;;;;0.10;0.10;;;6.20;99.90;;;;;;5071989;28;20220;-82
2023/04/15 02:37:54;;;;;;;0.10;0.10;;;6.30;99.90;;;;;;5070096;28;20192;-83
2023/04/15 02:40:20;;;;;;;0.10;0.10;;;6.20;99.90;;;;;;5070392;28;20597;-82
2023/04/15 02:42:46;;;;;;;0.10;0.10;;;6.20;99.90;;;;;;5067915;28;20204;-82
2023/04/15 02:45:11;;;;;;;0.10;0.10;;;6.30;99.90;;;;;;5066155;28;20211;-82
2023/04/15 02:47:40;;;;;;;0.10;0.10;;;6.20;99.90;;;;;;5070731;28;20184;-82
2023/04/15 02:50:11;;;;;;;0.10;0.10;;;6.20;99.90;;;;;;5068420;28;20195;-82
2023/04/15 02:52:40;;;;;;;0.07;0.07;;;6.20;99.90;;;;;;5070775;28;20760;-82
2023/04/15 02:55:07;;;;;;;0.10;0.10;;;6.20;99.90;;;;;;5069545;28;20212;-82
2023/04/15 02:57:33;;;;;;;0.10;0.10;;;6.10;99.90;;;;;;5069996;28;20187;-82
2023/04/15 02:59:59;;;;;;;0.10;0.10;;;6.10;99.90;;;;;;5066412;28;20184;-82
2023/04/15 03:02:25;;;;;;;0.10;0.10;;;6.10;99.90;;;;;;5071136;28;20561;-82
2023/04/15 03:04:50;;;;;;;0.10;0.10;;;6.10;99.90;;;;;;5066894;28;20208;-82
2023/04/15 03:07:17;;;;;;;0.10;0.10;;;6.10;99.90;;;;;;5066799;28;20799;-82
2023/04/15 03:09:43;;;;;;;0.03;0.03;;;6.10;99.90;;;;;;5073911;28;20226;-82
2023/04/15 03:12:09;;;;;;;0.10;0.10;;;6.10;99.90;;;;;;5070361;28;20192;-82
2023/04/15 03:14:34;;;;;;;0.10;0.10;;;6.10;99.90;;;;;;5070763;28;20239;-82
2023/04/15 03:17:00;;;;;;;0.10;0.10;;;6.10;99.90;;;;;;5070273;28;20188;-82
2023/04/15 03:19:25;;;;;;;0.10;0.10;;;6.10;99.90;;;;;;5077914;28;20656;-82
2023/04/15 03:21:51;;;;;;;0.10;0.10;;;6.10;99.90;;;;;;5080706;28;20184;-82
2023/04/15 03:24:17;;;;;;;0.10;0.10;;;6.10;99.90;;;;;;5080282;28;20236;-82
2023/04/15 03:26:42;;;;;;;0.10;0.10;;;6.00;99.90;;;;;;5070384;28;20239;-82
2023/04/15 03:29:08;;;;;;;0.10;0.10;;;6.00;99.90;;;;;;5072015;28;20191;-82
2023/04/15 03:31:33;;;;;;;0.10;0.10;;;6.00;99.90;;;;;;5073607;28;20192;-82
2023/04/15 03:33:59;;;;;;;0.10;0.10;;;6.00;99.90;;;;;;5068667;28;21193;-82
2023/04/15 03:36:26;;;;;;;0.10;0.10;;;5.90;99.90;;;;;;5073294;28;20182;-82
2023/04/15 03:38:51;;;;;;;0.07;0.07;;;5.60;99.90;;;;;;5073593;28;20260;-81
2023/04/15 03:41:17;;;;;;;0.10;0.10;;;5.10;99.90;;;;;;5072939;28;20187;-82
2023/04/15 03:43:43;;;;;;;0.10;0.10;;;5.00;99.90;;;;;;5073989;28;20201;-82
2023/04/15 03:46:08;;;;;;;0.10;0.10;;;5.10;99.90;;;;;;5070876;28;20174;-81
2023/04/15 03:48:34;;;;;;;0.10;0.10;;;5.20;99.90;;;;;;5070541;28;20196;-82
2023/04/15 03:50:59;;;;;;;0.03;0.03;;;5.40;99.90;;;;;;5073465;28;20201;-82
2023/04/15 03:53:25;;;;;;;0.10;0.10;;;5.50;99.90;;;;;;5070557;28;20185;-82
2023/04/15 03:55:51;;;;;;;0.10;0.10;;;5.60;99.90;;;;;;5071238;28;20220;-82
2023/04/15 03:58:16;;;;;;;0.10;0.10;;;5.60;99.90;;;;;;5070058;28;20186;-82
2023/04/15 04:00:42;;;;;;;0.10;0.10;;;5.70;99.90;;;;;;5071214;28;20184;-81
2023/04/15 04:03:07;;;;;;;0.00;0.00;;;5.70;99.90;;;;;;5073034;28;20216;-82
2023/04/15 04:05:35;;;;;;;0.10;0.10;;;5.70;99.90;;;;;;5070628;28;20317;-82
2023/04/15 04:08:01;;;;;;;0.10;0.10;;;5.70;99.90;;;;;;5091271;28;20185;-82
2023/04/15 04:10:27;;;;;;;0.10;0.10;;;5.70;99.90;;;;;;5074515;28;20244;-81
2023/04/15 04:12:52;;;;;;;0.10;0.10;;;5.70;99.90;;;;;;5070741;28;20213;-81
2023/04/15 04:15:18;;;;;;;0.10;0.10;;;5.70;99.90;;;;;;5070783;28;20227;-81
2023/04/15 04:17:43;;;;;;;0.10;0.10;;;5.70;99.90;;;;;;5071250;28;20198;-82
2023/04/15 04:20:09;;;;;;;0.10;0.10;;;5.70;99.90;;;;;;5074099;28;20181;-81
2023/04/15 04:22:39;;;;;;;0.10;0.10;;;5.60;99.90;;;;;;5068521;28;20182;-82
2023/04/15 04:25:06;;;;;;;0.10;0.10;;;5.50;99.90;;;;;;5072723;28;20212;-81
2023/04/15 04:27:31;;;;;;;0.10;0.10;;;5.60;99.90;;;;;;5069969;28;20183;-81
2023/04/15 04:29:56;;;;;;;0.00;0.00;;;5.60;99.90;;;;;;5068088;28;20272;-81
2023/04/15 04:32:22;;;;;;;0.10;0.10;;;5.70;99.90;;;;;;5067844;28;20568;-82
2023/04/15 04:34:48;;;;;;;0.10;0.10;;;5.80;99.90;;;;;;5066064;28;20234;-82
2023/04/15 04:37:13;;;;;;;0.10;0.10;;;5.80;99.90;;;;;;5066098;28;20800;-82
2023/04/15 04:39:39;;;;;;;0.10;0.10;;;5.90;99.90;;;;;;5070992;28;20182;-82
2023/04/15 04:42:05;;;;;;;0.10;0.10;;;5.90;99.90;;;;;;5068151;28;20196;-81
2023/04/15 04:44:30;;;;;;;0.10;0.10;;;5.90;99.90;;;;;;5072070;28;20601;-81
2023/04/15 04:46:59;;;;;;;0.10;0.10;;;5.90;99.90;;;;;;5073104;28;20198;-82
2023/04/15 04:49:25;;;;;;;0.10;0.10;;;5.90;99.90;;;;;;5079697;28;20940;-82
2023/04/15 04:51:51;;;;;;;0.10;0.10;;;5.80;99.90;;;;;;5073633;28;20203;-82
2023/04/15 04:54:16;;;;;;;0.10;0.10;;;5.80;99.90;;;;;;5076349;28;20238;-82
2023/04/15 04:56:42;;;;;;;0.10;0.10;;;5.80;99.90;;;;;;5076849;28;20179;-82
2023/04/15 04:59:08;;;;;;;0.10;0.10;;;5.70;99.90;;;;;;5068414;28;20286;-82
2023/04/15 05:01:33;;;;;;;0.10;0.10;;;5.70;99.90;;;;;;5070929;28;20209;-82
2023/04/15 05:03:59;;;;;;;0.10;0.10;;;5.60;99.90;;;;;;5070734;28;20288;-81
2023/04/15 05:06:25;;;;;;;0.10;0.10;;;5.60;99.90;;;;;;5067834;28;20210;-82
2023/04/15 05:08:50;;;;;;;0.10;0.10;;;5.60;99.90;;;;;;5073478;28;20199;-81
2023/04/15 05:11:16;;;;;;;0.10;0.10;;;5.60;99.90;;;;;;5072043;28;20191;-83
2023/04/15 05:13:41;;;;;;;0.00;0.00;;;5.60;99.90;;;;;;5067553;28;20217;-83
2023/04/15 05:16:08;;;;;;;0.10;0.10;;;5.50;99.90;;;;;;5068396;28;20319;-81
2023/04/15 05:18:33;;;;;;;0.10;0.10;;;5.50;99.90;;;;;;5067012;28;20214;-82
2023/04/15 05:20:59;;;;;;;0.07;0.07;;;5.50;99.90;;;;;;5065383;28;20182;-83
2023/04/15 05:23:25;;;;;;;0.10;0.10;;;5.50;99.90;;;;;;5062921;28;20186;-83
2023/04/15 05:25:51;;;;;;;0.10;0.10;;;5.50;99.90;;;;;;5055744;28;20196;-82
2023/04/15 05:28:16;;;;;;;0.00;0.00;;;5.60;99.90;;;;;;5059989;28;20266;-83
2023/04/15 05:30:42;;;;;;;0.10;0.10;;;5.60;99.90;;;;;;5060898;28;20182;-82
2023/04/15 05:33:08;;;;;;;0.10;0.10;;;5.60;99.90;;;;;;5061821;28;20178;-83
2023/04/15 05:35:33;;;;;;;0.00;0.00;;;5.60;99.90;;;;;;5058103;28;20707;-82
2023/04/15 05:37:59;;;;;;;0.10;0.10;;;5.50;99.90;;;;;;5060421;28;20241;-82
2023/04/15 05:40:25;;;;;;;0.10;0.10;;;5.40;99.90;;;;;;5056386;28;20209;-83
2023/04/15 05:42:50;;;;;;;0.10;0.10;;;5.40;99.90;;;;;;5061387;28;20229;-83
2023/04/15 05:45:16;;;;;;;0.00;0.00;;;5.30;99.90;;;;;;5058405;28;20267;-82
2023/04/15 05:47:42;;;;;;;0.10;0.10;;;5.40;99.90;;;;;;5058824;28;20534;-82
2023/04/15 05:50:08;;;;;;;0.10;0.10;;;5.40;99.90;;;;;;5059717;28;20182;-83
2023/04/15 05:52:33;;;;;;;0.10;0.10;;;5.40;99.90;;;;;;5062362;28;20185;-83
2023/04/15 05:54:59;;;;;;;0.10;0.10;;;5.40;99.90;;;;;;5057530;28;20881;-82
2023/04/15 05:57:25;;;;;;;0.10;0.10;;;5.60;99.90;;;;;;5058814;28;20186;-82
2023/04/15 05:59:51;;;;;;;0.10;0.10;;;5.60;99.90;;;;;;5056154;28;20186;-82
2023/04/15 06:02:17;;;;;;;0.10;0.10;;;5.70;99.90;;;;;;5061702;28;20189;-83
2023/04/15 06:04:43;;;;;;;0.03;0.03;;;5.80;99.90;;;;;;5057920;28;20227;-83
2023/04/15 06:07:08;;;;;;;0.10;0.10;;;5.80;99.90;;;;;;5057819;28;20193;-83
2023/04/15 06:09:35;;;;;;;0.10;0.10;;;5.80;99.90;;;;;;5056407;28;20226;-83
2023/04/15 06:12:01;;;;;;;0.10;0.10;;;5.80;99.90;;;;;;5064595;28;21063;-82
2023/04/15 06:14:27;;;;;;;0.10;0.10;;;5.90;99.90;;;;;;5059044;28;20857;-83
2023/04/15 06:16:52;;;;;;;0.00;0.00;;;6.00;99.90;;;;;;5062820;28;20188;-82
2023/04/15 06:19:18;;;;;;;0.10;0.10;;;6.00;99.90;;;;;;5061952;28;20202;-83
2023/04/15 06:21:44;;;;;;;0.10;0.10;;;6.10;99.90;;;;;;5060002;28;20188;-82
2023/04/15 06:24:10;;;;;;;0.00;0.00;;;6.20;99.90;;;;;;5063618;28;20210;-82
2023/04/15 06:26:36;;;;;;;0.00;0.00;;;6.40;99.90;;;;;;5061928;28;20608;-83
2023/04/15 06:29:01;;;;;;;0.10;0.10;;;6.50;99.90;;;;;;5063256;28;20185;-83
2023/04/15 06:31:27;;;;;;;0.10;0.10;;;6.50;99.90;;;;;;5055805;28;20555;-82
2023/04/15 06:33:53;;;;;;;0.10;0.10;;;6.70;99.90;;;;;;5055604;28;20225;-83
2023/04/15 06:36:20;;;;;;;0.10;0.10;;;6.90;99.90;;;;;;5060053;28;20188;-83
2023/04/15 06:38:45;;;;;;;0.10;0.10;;;7.00;99.90;;;;;;5059804;28;20688;-83
2023/04/15 06:41:11;;;;;;;0.10;0.10;;;7.20;99.90;;;;;;5058512;28;20259;-83
2023/04/15 06:43:37;;;;;;;0.10;0.10;;;7.30;99.90;;;;;;5058373;28;20365;-83
2023/04/15 06:46:02;;;;;;;0.10;0.10;;;7.00;99.90;;;;;;5061983;28;20179;-82
2023/04/15 06:48:28;;;;;;;0.10;0.10;;;7.10;99.90;;;;;;5057882;28;20184;-82
2023/04/15 06:50:54;;;;;;;0.10;0.10;;;7.40;99.90;;;;;;5065241;28;20219;-83
2023/04/15 06:53:19;;;;;;;0.00;0.00;;;7.80;99.90;;;;;;5063373;28;20272;-83
2023/04/15 06:55:45;;;;;;;0.10;0.10;;;8.00;99.90;;;;;;5059602;28;20224;-83
2023/04/15 06:58:10;;;;;;;0.10;0.10;;;8.00;99.90;;;;;;5064457;28;20186;-83
2023/04/15 07:00:38;;;;;;;0.10;0.10;;;8.40;99.90;;;;;;5064704;28;20193;-83
2023/04/15 07:03:04;;;;;;;0.10;0.10;;;9.00;99.90;;;;;;5061201;28;20268;-83
2023/04/15 07:05:31;;;;;;;0.10;0.10;;;9.20;99.90;;;;;;5060868;28;20218;-84
2023/04/15 07:07:57;;;;;;;0.10;0.10;;;9.40;99.90;;;;;;5060711;28;20213;-84
2023/04/15 07:10:22;;;;;;;0.10;0.10;;;9.70;99.90;;;;;;5062366;28;20218;-83
2023/04/15 07:12:49;;;;;;;0.10;0.10;;;9.90;99.90;;;;;;5066901;28;20512;-84
2023/04/15 07:15:15;;;;;;;0.10;0.10;;;10.10;99.90;;;;;;5067005;28;20730;-84
2023/04/15 07:17:42;;;;;;;0.10;0.10;;;10.30;99.90;;;;;;5067361;28;20259;-84
2023/04/15 07:20:08;;;;;;;0.10;0.10;;;10.40;99.90;;;;;;5066503;28;21188;-83
2023/04/15 07:22:33;;;;;;;0.10;0.10;;;10.60;99.90;;;;;;5063047;28;20185;-83
2023/04/15 07:24:59;;;;;;;0.00;0.00;;;10.80;99.90;;;;;;5064989;28;20370;-84
2023/04/15 07:27:26;;;;;;;0.00;0.00;;;11.10;99.90;;;;;;5059525;28;20681;-84
2023/04/15 07:29:52;;;;;;;0.10;0.10;;;11.20;99.90;;;;;;5058255;28;20192;-84
2023/04/15 07:32:17;;;;;;;0.10;0.10;;;11.20;99.90;;;;;;5064945;28;20193;-84
2023/04/15 07:34:43;;;;;;;0.10;0.10;;;11.10;99.90;;;;;;5065638;28;20721;-84
2023/04/15 07:37:09;;;;;;;0.10;0.10;;;10.70;99.90;;;;;;5066915;28;20582;-84
2023/04/15 07:39:34;;;;;;;0.10;0.10;;;10.80;99.90;;;;;;5067109;28;20191;-84
2023/04/15 07:42:01;;;;;;;0.10;0.10;;;10.90;99.90;;;;;;5062266;28;20188;-84
2023/04/15 07:44:26;;;;;;;0.07;0.07;;;10.60;99.90;;;;;;5063521;28;20693;-83
2023/04/15 07:46:52;;;;;;;0.10;0.10;;;10.70;99.90;;;;;;5058662;28;20195;-83
2023/04/15 07:49:20;;;;;;;0.10;0.10;;;11.30;99.90;;;;;;5063396;28;20559;-83
2023/04/15 07:51:46;;;;;;;0.10;0.10;;;11.50;99.90;;;;;;5062478;28;20181;-83
2023/04/15 07:54:12;;;;;;;0.10;0.10;;;11.50;99.90;;;;;;5057993;28;20278;-83
2023/04/15 07:56:37;;;;;;;0.10;0.10;;;11.90;99.90;;;;;;5060810;28;20185;-83
2023/04/15 07:59:04;;;;;;;0.10;0.10;;;11.80;99.90;;;;;;5060852;28;20197;-83
2023/04/15 08:01:30;;;;;;;0.10;0.10;;;11.90;99.90;;;;;;5060685;28;20185;-82
2023/04/15 08:03:56;;;;;;;0.10;0.10;;;12.50;99.90;;;;;;5061378;28;20228;-83
2023/04/15 08:06:22;;;;;;;0.10;0.10;;;12.90;99.90;;;;;;5062258;28;20556;-83
2023/04/15 08:08:47;;;;;;;0.10;0.10;;;13.20;99.90;;;;;;5066785;28;20204;-82
2023/04/15 08:11:14;;;;;;;0.10;0.10;;;12.90;99.90;;;;;;5059738;28;20192;-83
2023/04/15 08:13:39;;;;;;;0.10;0.10;;;13.30;99.90;;;;;;5062783;28;20543;-82
2023/04/15 08:16:18;;;;;;;0.10;0.10;;;13.50;99.90;;;;;;5062408;28;20199;-83
2023/04/15 08:18:43;;;;;;;0.10;0.10;;;13.70;99.90;;;;;;5065247;28;20278;-83
2023/04/15 08:21:10;;;;;;;0.10;0.10;;;13.90;99.90;;;;;;5057188;28;20270;-83
2023/04/15 08:23:36;;;;;;;0.00;0.00;;;14.10;99.90;;;;;;5064081;28;20194;-82
2023/04/15 08:26:02;;;;;;;0.10;0.10;;;14.60;99.90;;;;;;5065928;28;20184;-83
2023/04/15 08:28:27;;;;;;;0.10;0.10;;;14.80;99.90;;;;;;5060907;28;20187;-83
2023/04/15 08:30:53;;;;;;;0.10;0.10;;;15.10;99.90;;;;;;5057983;28;20191;-83
2023/04/15 08:33:18;;;;;;;0.10;0.10;;;15.30;99.90;;;;;;5063732;28;20317;-82
2023/04/15 08:35:44;;;;;;;0.10;0.10;;;15.40;99.90;;;;;;5059331;28;20370;-82
2023/04/15 08:38:10;;;;;;;0.10;0.10;;;15.60;99.90;;;;;;5062554;28;20289;-82
2023/04/15 08:40:41;;;;;;;0.10;0.10;;;15.90;99.90;;;;;;5060187;28;20319;-82
2023/04/15 08:43:10;;;;;;;0.10;0.10;;;15.70;99.90;;;;;;5064270;28;20272;-82
2023/04/15 08:45:38;;;;;;;0.10;0.10;;;15.40;99.90;;;;;;5063349;28;20208;-82
2023/04/15 08:48:04;;;;;;;0.10;0.10;;;14.80;99.90;;;;;;5062914;28;20298;-82
2023/04/15 08:50:31;;;;;;;0.10;0.10;;;14.70;99.90;;;;;;5062639;28;20267;-82
2023/04/15 08:52:58;;;;;;;0.10;0.10;;;14.50;99.90;;;;;;5062497;28;20184;-82
2023/04/15 08:55:32;;;;;;;0.10;0.10;;;14.60;99.90;;;;;;5058572;28;20603;-82
2023/04/15 08:57:58;;;;;;;0.10;0.10;;;14.50;99.90;;;;;;5066027;28;20554;-81
2023/04/15 09:00:24;;;;;;;0.10;0.10;;;14.90;99.90;;;;;;5061752;28;20180;-82
2023/04/15 09:02:51;;;;;;;0.10;0.10;;;14.20;99.90;;;;;;5065173;28;20200;-81
2023/04/15 09:05:16;;;;;;;0.10;0.10;;;14.50;99.90;;;;;;5065035;28;20220;-83
2023/04/15 09:07:42;;;;;;;0.10;0.10;;;14.20;99.90;;;;;;5058049;28;20183;-82
2023/04/15 09:10:09;;;;;;;0.10;0.10;;;14.30;99.90;;;;;;5058778;28;20202;-82
2023/04/15 09:12:36;;;;;;;0.10;0.10;;;14.60;99.90;;;;;;5064763;28;20549;-82
2023/04/15 09:15:02;;;;;;;0.10;0.10;;;14.20;99.90;;;;;;5062497;28;20207;-82
2023/04/15 09:17:31;;;;;;;0.10;0.10;;;14.10;99.90;;;;;;5059666;28;20208;-82
2023/04/15 09:20:10;;;;;;;0.10;0.10;;;13.90;99.90;;;;;;5064269;28;20267;-82
2023/04/15 09:22:36;;;;;;;0.10;0.10;;;14.20;99.90;;;;;;5062724;28;20547;-82
2023/04/15 09:25:02;;;;;;;0.10;0.10;;;14.30;99.90;;;;;;5058974;28;20242;-82
2023/04/15 09:27:28;;;;;;;0.10;0.10;;;14.00;99.90;;;;;;5065113;28;21238;-82
2023/04/15 09:29:54;;;;;;;0.10;0.10;;;14.00;99.90;;;;;;5057278;28;20245;-82
2023/04/15 09:32:23;;;;;;;0.07;0.07;;;13.80;99.90;;;;;;5060536;28;20215;-82
2023/04/15 09:34:49;;;;;;;0.10;0.10;;;13.90;99.90;;;;;;5062958;28;20579;-81
2023/04/15 09:37:17;;;;;;;0.10;0.10;;;13.90;99.90;;;;;;5056765;28;20188;-82
2023/04/15 09:39:47;;;;;;;0.10;0.10;;;13.70;99.90;;;;;;5057912;28;20187;-82
2023/04/15 09:42:12;;;;;;;0.10;0.10;;;13.70;99.90;;;;;;5061046;28;20221;-83
2023/04/15 09:44:38;;;;;;;0.10;0.10;;;13.70;99.90;;;;;;5061379;28;20743;-82
2023/04/15 09:47:03;;;;;;;0.10;0.10;;;13.80;99.90;;;;;;5062031;28;20183;-83
2023/04/15 09:49:29;;;;;;;0.10;0.10;;;14.00;99.90;;;;;;5052543;28;20258;-82
2023/04/15 09:52:01;;;;;;;0.10;0.10;;;13.60;99.90;;;;;;5059743;28;20199;-82
2023/04/15 09:54:35;;;;;;;0.10;0.10;;;13.80;99.90;;;;;;5057175;28;20215;-82
2023/04/15 09:57:06;;;;;;;0.10;0.10;;;13.80;99.90;;;;;;5058735;28;20185;-82
2023/04/15 09:59:31;;;;;;;0.10;0.10;;;14.10;99.90;;;;;;5057712;28;20257;-83
2023/04/15 10:01:57;;;;;;;0.10;0.10;;;14.00;99.90;;;;;;5061452;28;20910;-83
2023/04/15 10:04:23;;;;;;;0.10;0.10;;;14.30;99.90;;;;;;5053737;28;20285;-84
2023/04/15 10:06:49;;;;;;;0.10;0.10;;;14.60;99.90;;;;;;5061382;28;20274;-82
2023/04/15 10:09:16;;;;;;;0.10;0.10;;;14.60;99.90;;;;;;5061212;28;20624;-82
2023/04/15 10:11:43;;;;;;;0.10;0.10;;;14.80;99.90;;;;;;5061513;28;20193;-82
2023/04/15 10:14:10;;;;;;;0.10;0.10;;;15.00;99.90;;;;;;5061648;28;20222;-82
2023/04/15 10:16:41;;;;;;;0.20;0.20;;;15.30;99.90;;;;;;5056691;28;20192;-82
2023/04/15 10:19:09;;;;;;;0.10;0.10;;;15.00;99.90;;;;;;5061542;28;20194;-82
2023/04/15 10:21:36;;;;;;;0.10;0.10;;;15.10;99.90;;;;;;5061742;28;20188;-82
2023/04/15 10:24:02;;;;;;;0.10;0.10;;;15.00;99.90;;;;;;5065046;28;20365;-80
2023/04/15 10:26:28;;;;;;;0.10;0.10;;;15.20;99.90;;;;;;5067962;28;20192;-81
2023/04/15 10:28:55;;;;;;;0.10;0.10;;;15.50;99.90;;;;;;5064886;28;20198;-82
2023/04/15 10:31:21;;;;;;;0.10;0.10;;;15.20;99.90;;;;;;5065692;28;20199;-82
2023/04/15 10:33:48;;;;;;;0.10;0.10;;;14.70;99.90;;;;;;5064657;28;20696;-82
2023/04/15 10:36:14;;;;;;;0.10;0.10;;;14.40;99.90;;;;;;5066275;28;20369;-82
2023/04/15 10:38:42;;;;;;;0.10;0.10;;;14.40;99.90;;;;;;5059301;28;20184;-82
2023/04/15 10:41:15;;;;;;;0.10;0.10;;;14.10;99.90;;;;;;5068277;28;20641;-81
2023/04/15 10:44:00;;;;;;;0.10;0.10;;;14.30;99.90;;;;;;5066733;28;20188;-82
2023/04/15 10:46:40;;;;;;;0.10;0.10;;;14.40;99.90;;;;;;5069654;28;20608;-82
2023/04/15 10:49:10;;;;;;;0.10;0.10;;;14.20;99.90;;;;;;5066998;28;20218;-82
2023/04/15 10:51:40;;;;;;;0.10;0.10;;;13.80;99.90;;;;;;5067897;28;20193;-81
2023/04/15 10:54:12;;;;;;;0.10;0.10;;;13.80;99.90;;;;;;5063500;28;20280;-82
2023/04/15 10:56:41;;;;;;;0.10;0.10;;;13.70;99.90;;;;;;5067620;28;20242;-82
2023/04/15 10:59:06;;;;;;;0.10;0.10;;;13.70;99.90;;;;;;5066929;28;20186;-82
2023/04/15 11:01:56;;;;;;;0.10;0.10;;;14.10;99.90;;;;;;5062480;28;20193;-82
2023/04/15 11:04:56;;;;;;;0.10;0.10;;;14.00;99.90;;;;;;5064137;28;20329;-82
2023/04/15 11:07:39;;;;;;;0.10;0.10;;;13.50;99.90;;;;;;5069000;28;20288;-81
2023/04/15 11:10:17;;;;;;;0.07;0.07;;;13.50;99.90;;;;;;5069080;28;20196;-82
2023/04/15 11:13:04;;;;;;;0.10;0.10;;;13.60;99.90;;;;;;5062738;28;20209;-82
2023/04/15 11:15:32;;;;;;;0.10;0.10;;;14.30;99.90;;;;;;5062806;28;20213;-82
2023/04/15 11:18:07;;;;;;;0.10;0.10;;;14.70;99.90;;;;;;5069429;28;20209;-82
2023/04/15 11:20:33;;;;;;;0.10;0.10;;;14.70;99.90;;;;;;5067013;28;20183;-82
2023/04/15 11:22:59;;;;;;;0.10;0.10;;;14.70;99.90;;;;;;5068952;28;20242;-82
2023/04/15 11:25:25;;;;;;;8.10;6.17;;;14.30;99.90;;;;;;5069485;28;20204;-82
2023/04/15 11:27:55;;;;;;;0.10;0.10;;;14.30;99.90;;;;;;5067970;28;20188;-82
2023/04/15 11:30:26;;;;;;;0.10;0.10;;;14.40;99.90;;;;;;5062838;28;20188;-82
2023/04/15 11:32:53;;;;;;;0.10;0.10;;;14.00;99.90;;;;;;5063282;28;20745;-82
2023/04/15 11:35:20;;;;;;;0.10;0.10;;;14.10;99.90;;;;;;5059494;28;20272;-82
2023/04/15 11:37:49;;;;;;;0.10;0.10;;;14.00;99.90;;;;;;5064389;28;20184;-82
2023/04/15 11:40:26;;;;;;;0.10;0.10;;;14.10;99.90;;;;;;5057042;28;20596;-82
2023/04/15 11:43:07;;;;;;;0.10;0.10;;;13.70;99.90;;;;;;5066420;28;20171;-82
2023/04/15 11:45:33;;;;;;;0.10;0.10;;;13.70;99.90;;;;;;5066263;28;20216;-82
2023/04/15 11:48:09;;;;;;;0.10;0.10;;;13.50;99.90;;;;;;5059745;28;20196;-82
2023/04/15 11:50:36;;;;;;;0.10;0.10;;;13.90;99.90;;;;;;5062085;28;20553;-82
2023/04/15 11:53:04;;;;;;;0.10;0.10;;;14.00;99.90;;;;;;5064735;28;20730;-82
2023/04/15 11:55:30;;;;;;;0.10;0.10;;;14.20;99.90;;;;;;5063213;28;20294;-82
2023/04/15 11:58:07;;;;;;;0.10;0.10;;;14.30;99.90;;;;;;5064521;28;20281;-82
2023/04/15 12:00:33;;;;;;;0.10;0.10;;;14.50;99.90;;;;;;5060318;28;21009;-82
2023/04/15 12:03:18;;;;;;;0.10;0.10;;;14.50;99.90;;;;;;5060451;28;20192;-83
2023/04/15 12:06:09;;;;;;;0.10;0.10;;;14.70;99.90;;;;;;5064837;28;20203;-82
2023/04/15 12:08:47;;;;;;;0.10;0.10;;;14.20;99.90;;;;;;5063155;28;21286;-82
2023/04/15 12:11:14;;;;;;;0.10;0.10;;;14.00;99.90;;;;;;5061283;28;20295;-82
2023/04/15 12:13:47;;;;;;;0.10;0.10;;;13.80;99.90;;;;;;5059776;28;20289;-82
2023/04/15 12:16:15;;;;;;;0.10;0.10;;;14.00;99.90;;;;;;5079224;28;20578;-82
2023/04/15 12:18:43;;;;;;;0.10;0.10;;;13.50;99.90;;;;;;5058782;28;20313;-82
2023/04/15 12:21:09;;;;;;;0.10;0.10;;;13.50;99.90;;;;;;5064044;28;20630;-82
2023/04/15 12:23:47;;;;;;;0.10;0.10;;;13.30;99.90;;;;;;5064299;28;20193;-82
2023/04/15 12:26:13;;;;;;;0.10;0.10;;;13.20;99.90;;;;;;5063938;28;20182;-82
2023/04/15 12:28:41;;;;;;;0.10;0.10;;;13.20;99.90;;;;;;5058775;28;20190;-81
2023/04/15 12:31:10;;;;;;;0.10;0.10;;;13.40;99.90;;;;;;5064102;28;20282;-82
2023/04/15 12:33:36;;;;;;;0.10;0.10;;;13.40;99.90;;;;;;5057772;28;20650;-82
2023/04/15 12:36:02;;;;;;;0.10;0.10;;;13.40;99.90;;;;;;5064440;28;20204;-82
2023/04/15 12:38:28;;;;;;;0.10;0.10;;;13.30;99.90;;;;;;5060661;28;20233;-82
2023/04/15 12:40:54;;;;;;;0.10;0.10;;;13.40;99.90;;;;;;5061068;28;20184;-82
2023/04/15 12:43:19;;;;;;;0.10;0.10;;;13.50;99.90;;;;;;5059597;28;20188;-81
2023/04/15 12:45:45;;;;;;;0.10;0.10;;;13.50;99.90;;;;;;5066797;28;20223;-82
2023/04/15 12:48:11;;;;;;;0.10;0.10;;;13.90;99.90;;;;;;5063753;28;20180;-85
2023/04/15 12:50:36;;;;;;;0.10;0.10;;;14.20;99.90;;;;;;5059955;28;20232;-85
2023/04/15 12:53:02;;;;;;;0.10;0.10;;;14.30;99.90;;;;;;5062778;28;20193;-85